^^
Saratoga-Weather Station Historical Data
Daily Summary for June 22, 2020 Units:  English    Metric   Both
Daily Weekly Monthly Yearly Custom
  High: Low: Average:
Temperature: 80.8 °F 49.3 °F 64.6 °F
Dew Point: 59.7 °F 44.8 °F 48.9 °F
Humidity: 90% 32% 61%
Wind Speed: 8.9mph 0mph 1.2mph
Wind Gust: 10mph - -
Wind- - SW
Pressure: 29.9 in 29.7 in -
Precipitation: 0 in    
Historical Graphs
 
 
Tabular Data for June 22, 2020
Time Temperature Dew Point Pressure Wind Wind Speed Wind Gust Humidity Rainfall Rate (Hourly) solar
00:00 57.6 °F 48.2 °F 29.9 in Calm     71% 0 in 0 W/m2
00:05 57.4 °F 48 °F 29.9 in Calm     71% 0 in 0 W/m2
00:10 57.4 °F 48 °F 29.9 in Calm     71% 0 in 0 W/m2
00:15 57 °F 48 °F 29.9 in Calm     72% 0 in 0 W/m2
00:20 56.8 °F 47.8 °F 29.9 in Calm     72% 0 in 0 W/m2
00:25 56.8 °F 47.8 °F 29.9 in Calm   1 mph 72% 0 in 0 W/m2
00:30 56.7 °F 48 °F 29.9 in Calm     73% 0 in 0 W/m2
00:35 56.7 °F 48 °F 29.9 in Calm     73% 0 in 0 W/m2
00:40 56.7 °F 48 °F 29.9 in Calm     73% 0 in 0 W/m2
00:45 56.5 °F 48 °F 29.9 in Calm   1 mph 73% 0 in 0 W/m2
00:50 56.5 °F 48 °F 29.9 in Calm     73% 0 in 0 W/m2
00:55 56.3 °F 48.2 °F 29.9 in SSW 0.9 mph 1 mph 74% 0 in 0 W/m2
01:00 56.3 °F 48.2 °F 29.9 in Calm   1 mph 74% 0 in 0 W/m2
01:05 56.3 °F 48.2 °F 29.9 in Calm   2 mph 74% 0 in 0 W/m2
01:10 56.1 °F 48 °F 29.9 in Calm   1 mph 74% 0 in 0 W/m2
01:15 55.9 °F 47.8 °F 29.9 in Calm   2 mph 74% 0 in 0 W/m2
01:20 55.8 °F 47.7 °F 29.9 in Calm     74% 0 in 0 W/m2
01:25 55.6 °F 47.8 °F 29.9 in Calm     75% 0 in 0 W/m2
01:30 55.2 °F 47.5 °F 29.9 in Calm     75% 0 in 0 W/m2
01:36 55 °F 47.7 °F 29.9 in Calm     76% 0 in 0 W/m2
01:41 54.9 °F 47.8 °F 29.9 in Calm     77% 0 in 0 W/m2
01:46 54.7 °F 48 °F 29.9 in Calm     78% 0 in 0 W/m2
01:51 54.7 °F 48 °F 29.9 in SSW 0.9 mph 1 mph 78% 0 in 0 W/m2
01:56 54.5 °F 47.8 °F 29.9 in Calm     78% 0 in 0 W/m2
02:01 54.5 °F 48.2 °F 29.9 in Calm     79% 0 in 0 W/m2
02:06 54.3 °F 48 °F 29.9 in Calm     79% 0 in 0 W/m2
02:11 54.3 °F 48 °F 29.9 in Calm     79% 0 in 0 W/m2
02:16 54.1 °F 48 °F 29.9 in Calm     80% 0 in 0 W/m2
02:21 54.1 °F 48 °F 29.9 in Calm     80% 0 in 0 W/m2
02:26 54.1 °F 48 °F 29.9 in Calm     80% 0 in 0 W/m2
02:31 54.1 °F 48 °F 29.9 in Calm   1 mph 80% 0 in 0 W/m2
02:36 54 °F 48 °F 29.9 in Calm   1 mph 80% 0 in 0 W/m2
02:41 54 °F 48 °F 29.9 in Calm     80% 0 in 0 W/m2
02:46 53.8 °F 47.8 °F 29.9 in Calm     80% 0 in 0 W/m2
02:51 53.6 °F 47.7 °F 29.9 in Calm     80% 0 in 0 W/m2
02:56 53.4 °F 47.7 °F 29.9 in Calm     81% 0 in 0 W/m2
03:01 53.2 °F 47.5 °F 29.9 in Calm     81% 0 in 0 W/m2
03:06 53.2 °F 47.5 °F 29.9 in Calm     81% 0 in 0 W/m2
03:11 53.1 °F 47.7 °F 29.9 in Calm     82% 0 in 0 W/m2
03:16 53.1 °F 47.7 °F 29.9 in Calm     82% 0 in 0 W/m2
03:21 53.1 °F 47.7 °F 29.9 in Calm     82% 0 in 0 W/m2
03:26 53.1 °F 47.7 °F 29.9 in Calm     82% 0 in 0 W/m2
03:31 53.1 °F 47.7 °F 29.9 in Calm     82% 0 in 0 W/m2
03:36 52.9 °F 47.5 °F 29.9 in Calm   1 mph 82% 0 in 0 W/m2
03:41 52.7 °F 47.3 °F 29.9 in Calm     82% 0 in 0 W/m2
03:46 52.5 °F 47.1 °F 29.9 in Calm   1 mph 82% 0 in 0 W/m2
03:51 52.3 °F 46.9 °F 29.9 in Calm     82% 0 in 0 W/m2
03:56 52.2 °F 47.1 °F 29.9 in Calm     83% 0 in 0 W/m2
04:01 52.2 °F 47.1 °F 29.9 in Calm     83% 0 in 0 W/m2
04:06 52 °F 46.9 °F 29.9 in Calm     83% 0 in 0 W/m2
04:11 51.8 °F 46.8 °F 29.9 in Calm     83% 0 in 0 W/m2
04:16 51.6 °F 46.9 °F 29.9 in Calm     84% 0 in 0 W/m2
04:21 51.4 °F 46.8 °F 29.9 in Calm     84% 0 in 0 W/m2
04:26 51.4 °F 46.8 °F 29.9 in Calm   1 mph 84% 0 in 0 W/m2
04:31 51.4 °F 46.8 °F 29.9 in West 0.9 mph 1 mph 84% 0 in 0 W/m2
04:36 51.6 °F 46.9 °F 29.9 in Calm   1 mph 84% 0 in 0 W/m2
04:41 52 °F 47.3 °F 29.9 in Calm     84% 0 in 0 W/m2
04:46 52 °F 46.9 °F 29.9 in Calm     83% 0 in 0 W/m2
04:51 51.8 °F 46.8 °F 29.9 in Calm     83% 0 in 0 W/m2
04:56 51.6 °F 46.9 °F 29.9 in Calm     84% 0 in 0 W/m2
05:01 51.4 °F 46.8 °F 29.9 in Calm     84% 0 in 0 W/m2
05:06 51.4 °F 46.8 °F 29.9 in Calm     84% 0 in 0 W/m2
05:11 51.3 °F 46.6 °F 29.9 in Calm     84% 0 in 0 W/m2
05:16 51.1 °F 46.8 °F 29.9 in Calm     85% 0 in 0 W/m2
05:21 50.9 °F 46.6 °F 29.9 in Calm     85% 0 in 0 W/m2
05:26 50.7 °F 46.4 °F 29.9 in Calm     85% 0 in 0 W/m2
05:31 50.5 °F 46.6 °F 29.9 in Calm     86% 0 in 0 W/m2
05:36 50.5 °F 46.6 °F 29.9 in Calm     86% 0 in 0 W/m2
05:41 50.4 °F 46.4 °F 29.9 in Calm     86% 0 in 0 W/m2
05:46 50.4 °F 46.6 °F 29.9 in Calm     87% 0 in 0 W/m2
05:51 50.4 °F 46.6 °F 29.9 in Calm     87% 0 in 0 W/m2
05:56 50.4 °F 46.6 °F 29.9 in Calm     87% 0 in 0 W/m2
06:01 50.4 °F 46.6 °F 29.9 in Calm     87% 0 in 0 W/m2
06:06 50.2 °F 46.4 °F 29.9 in Calm     87% 0 in 0 W/m2
06:11 50.2 °F 46.4 °F 29.9 in Calm     87% 0 in 0 W/m2
06:16 50 °F 46.6 °F 29.9 in Calm     88% 0 in 0 W/m2
06:21 49.8 °F 46.4 °F 29.9 in Calm     88% 0 in 0 W/m2
06:26 49.8 °F 46.4 °F 29.9 in Calm     88% 0 in 0 W/m2
06:31 49.8 °F 46.4 °F 29.9 in Calm     88% 0 in 0 W/m2
06:36 49.6 °F 46.2 °F 29.9 in Calm     88% 0 in 0 W/m2
06:41 49.6 °F 46.2 °F 29.9 in Calm     88% 0 in 0 W/m2
06:46 49.6 °F 46.6 °F 29.9 in Calm     89% 0 in 0 W/m2
06:51 49.5 °F 46.4 °F 29.9 in Calm     89% 0 in 0 W/m2
06:57 49.5 °F 46.4 °F 29.9 in Calm     89% 0 in 0 W/m2
07:02 49.3 °F 46.2 °F 29.9 in Calm     89% 0 in 0 W/m2
07:07 49.3 °F 46.2 °F 29.9 in Calm     89% 0 in 0 W/m2
07:12 49.5 °F 46.6 °F 29.9 in Calm     90% 0 in 0 W/m2
07:17 49.5 °F 46.6 °F 29.9 in Calm     90% 0 in 0 W/m2
07:22 49.5 °F 46.6 °F 29.9 in Calm     90% 0 in 0 W/m2
07:27 49.6 °F 46.6 °F 29.9 in Calm     89% 0 in 5 W/m2
07:32 49.5 °F 46.4 °F 29.9 in Calm     89% 0 in 7 W/m2
07:37 49.5 °F 46.4 °F 29.9 in Calm     89% 0 in 9 W/m2
07:42 49.5 °F 46.4 °F 29.9 in Calm     89% 0 in 11 W/m2
07:47 49.5 °F 46.4 °F 29.9 in Calm     89% 0 in 12 W/m2
07:52 49.3 °F 46.2 °F 29.9 in Calm     89% 0 in 14 W/m2
07:57 49.3 °F 46.2 °F 29.9 in Calm     89% 0 in 16 W/m2
08:02 49.3 °F 46.2 °F 29.9 in Calm     89% 0 in 18 W/m2
08:07 49.3 °F 46.4 °F 29.9 in Calm     90% 0 in 19 W/m2
08:12 49.5 °F 46.6 °F 29.9 in Calm     90% 0 in 21 W/m2
08:17 49.5 °F 46.6 °F 29.9 in Calm     90% 0 in 23 W/m2
08:22 49.6 °F 46.8 °F 29.9 in Calm     90% 0 in 25 W/m2
08:27 49.8 °F 46.9 °F 29.9 in Calm     90% 0 in 26 W/m2
08:32 50.2 °F 47.3 °F 29.9 in Calm     90% 0 in 28 W/m2
08:37 50.4 °F 47.3 °F 29.9 in Calm     89% 0 in 28 W/m2
08:42 50.5 °F 47.5 °F 29.9 in Calm     89% 0 in 30 W/m2
08:47 50.9 °F 47.8 °F 29.9 in Calm     89% 0 in 32 W/m2
08:52 51.3 °F 47.8 °F 29.9 in Calm     88% 0 in 35 W/m2
08:57 51.6 °F 48.2 °F 29.9 in Calm     88% 0 in 33 W/m2
09:02 52 °F 48.2 °F 29.9 in Calm     87% 0 in 35 W/m2
09:07 52.2 °F 48.4 °F 29.9 in Calm     87% 0 in 132 W/m2
09:12 52.5 °F 48.4 °F 29.9 in Calm     86% 0 in 46 W/m2
09:17 53.2 °F 48.9 °F 29.9 in Calm     85% 0 in 39 W/m2
09:22 54 °F 49.3 °F 29.9 in West 0.9 mph 1 mph 84% 0 in 40 W/m2
09:27 54.7 °F 49.6 °F 29.9 in NW 0.9 mph 2 mph 83% 0 in 40 W/m2
09:32 55.2 °F 49.5 °F 29.9 in Calm     81% 0 in 40 W/m2
09:37 55.8 °F 49.6 °F 29.9 in Calm   1 mph 80% 0 in 40 W/m2
09:42 56.3 °F 49.8 °F 29.9 in Calm   1 mph 79% 0 in 42 W/m2
09:47 57 °F 50.2 °F 29.9 in Calm   1 mph 78% 0 in 42 W/m2
09:52 57.7 °F 50.5 °F 29.9 in Calm   1 mph 77% 0 in 44 W/m2
09:57 58.5 °F 50.5 °F 29.9 in Calm     75% 0 in 44 W/m2
10:02 58.8 °F 51.3 °F 29.9 in Calm     76% 0 in 46 W/m2
10:07 59.7 °F 51.1 °F 29.9 in Calm   2 mph 73% 0 in 47 W/m2
10:12 60.3 °F 51.3 °F 29.9 in Calm   1 mph 72% 0 in 47 W/m2
10:17 60.6 °F 51.1 °F 29.9 in East 0.9 mph 2 mph 71% 0 in 47 W/m2
10:22 61.2 °F 51.3 °F 29.9 in NE 0.9 mph 2 mph 70% 0 in 49 W/m2
10:27 61.5 °F 51.3 °F 29.9 in NNE 0.9 mph 3 mph 69% 0 in 51 W/m2
10:32 61.5 °F 51.6 °F 29.9 in WNW 0.9 mph 2 mph 70% 0 in 51 W/m2
10:37 61.7 °F 51.1 °F 29.9 in Calm   2 mph 68% 0 in 53 W/m2
10:42 61.9 °F 51.6 °F 29.9 in North 0.9 mph 2 mph 69% 0 in 53 W/m2
10:48 62.1 °F 51.8 °F 29.9 in Calm   2 mph 69% 0 in 54 W/m2
10:53 62.4 °F 52.2 °F 29.9 in Calm   2 mph 69% 0 in 54 W/m2
10:58 63.1 °F 52.3 °F 29.9 in ESE 0.9 mph 1 mph 68% 0 in 56 W/m2
11:03 63.7 °F 52.5 °F 29.9 in ENE 0.9 mph 3 mph 67% 0 in 58 W/m2
11:08 64 °F 52.9 °F 29.9 in East 0.9 mph 3 mph 67% 0 in 58 W/m2
11:13 64.4 °F 52.9 °F 29.9 in NNE 2.9 mph 4 mph 66% 0 in 62 W/m2
11:18 64.8 °F 53.6 °F 29.9 in Calm   3 mph 67% 0 in 63 W/m2
11:23 65.5 °F 53.4 °F 29.9 in Calm   4 mph 65% 0 in 67 W/m2
11:28 66 °F 53.4 °F 29.9 in ENE 0.9 mph 2 mph 64% 0 in 69 W/m2
11:33 66.6 °F 54 °F 29.9 in Calm   1 mph 64% 0 in 74 W/m2
11:38 66.9 °F 54 °F 29.9 in NE 0.9 mph 4 mph 63% 0 in 255 W/m2
11:43 67.3 °F 54.3 °F 29.9 in NE 2 mph 2 mph 63% 0 in 485 W/m2
11:48 68.2 °F 54.7 °F 29.8 in ENE 2 mph 4 mph 62% 0 in 517 W/m2
11:53 68.7 °F 54.7 °F 29.8 in ENE 0.9 mph 3 mph 61% 0 in 526 W/m2
11:58 69.1 °F 54.7 °F 29.8 in ESE 4 mph 4 mph 60% 0 in 533 W/m2
12:03 69.4 °F 54.5 °F 29.8 in NNW 2 mph 3 mph 59% 0 in 540 W/m2
12:08 69.6 °F 55 °F 29.8 in Calm   4 mph 60% 0 in 550 W/m2
12:13 70.2 °F 55.2 °F 29.8 in NE 0.9 mph 4 mph 59% 0 in 559 W/m2
12:18 70.9 °F 55.4 °F 29.8 in NE 2 mph 4 mph 58% 0 in 564 W/m2
12:23 71.4 °F 55.9 °F 29.8 in NE 2 mph 3 mph 58% 0 in 571 W/m2
12:28 72 °F 55.9 °F 29.8 in East 2.9 mph 5 mph 57% 0 in 577 W/m2
12:33 72.7 °F 56.5 °F 29.8 in NE 2 mph 4 mph 57% 0 in 589 W/m2
12:38 73 °F 56.5 °F 29.8 in ENE 2.9 mph 8 mph 56% 0 in 596 W/m2
12:43 73.2 °F 56.7 °F 29.8 in SW 0.9 mph 3 mph 56% 0 in 601 W/m2
12:48 73.6 °F 56.8 °F 29.8 in SE 2 mph 6 mph 56% 0 in 601 W/m2
12:53 74.1 °F 56.8 °F 29.8 in NE 0.9 mph 3 mph 55% 0 in 608 W/m2
12:58 74.1 °F 56.8 °F 29.8 in ENE 4 mph 5 mph 55% 0 in 610 W/m2
13:03 73.9 °F 56.8 °F 29.8 in ENE 2.9 mph 4 mph 55% 0 in 615 W/m2
13:08 74.5 °F 57.2 °F 29.8 in East 2 mph 4 mph 55% 0 in 617 W/m2
13:13 74.8 °F 57.6 °F 29.8 in NW 0.9 mph 6 mph 55% 0 in 613 W/m2
13:18 75 °F 57.7 °F 29.8 in North 0.9 mph 4 mph 55% 0 in 617 W/m2
13:23 75.4 °F 58.6 °F 29.8 in NE 2 mph 4 mph 56% 0 in 631 W/m2
13:28 76.1 °F 58.8 °F 29.8 in NE 2 mph 4 mph 55% 0 in 636 W/m2
13:33 76.8 °F 59 °F 29.8 in Calm   3 mph 54% 0 in 636 W/m2
13:38 77.4 °F 58.8 °F 29.8 in NW 2 mph 2 mph 53% 0 in 636 W/m2
13:43 77.7 °F 59.7 °F 29.8 in ENE 0.9 mph 2 mph 54% 0 in 635 W/m2
13:48 77.7 °F 59.2 °F 29.8 in NNE 2 mph 5 mph 53% 0 in 645 W/m2
13:53 77.4 °F 58.8 °F 29.8 in NNW 4 mph 6 mph 53% 0 in 631 W/m2
13:58 77.4 °F 57.2 °F 29.8 in NE 2 mph 2 mph 50% 0 in 642 W/m2
14:03 77.4 °F 57.7 °F 29.8 in SSW 5 mph 5 mph 51% 0 in 622 W/m2
14:08 77.4 °F 55 °F 29.8 in West 6 mph 6 mph 46% 0 in 628 W/m2
14:13 77.4 °F 54.3 °F 29.8 in WNW 0.9 mph 4 mph 45% 0 in 629 W/m2
14:18 77.5 °F 53.2 °F 29.8 in ENE 0.9 mph 5 mph 43% 0 in 631 W/m2
14:23 77.7 °F 52.2 °F 29.8 in Calm   3 mph 41% 0 in 621 W/m2
14:28 77.9 °F 51.6 °F 29.8 in Calm   5 mph 40% 0 in 619 W/m2
14:33 78.4 °F 50.7 °F 29.8 in NW 0.9 mph 2 mph 38% 0 in 621 W/m2
14:38 79 °F 49.8 °F 29.8 in NW 2 mph 5 mph 36% 0 in 612 W/m2
14:43 78.8 °F 49.6 °F 29.8 in NW 4 mph 4 mph 36% 0 in 605 W/m2
14:48 78.8 °F 48 °F 29.8 in WNW 2 mph 8 mph 34% 0 in 601 W/m2
14:53 78.6 °F 47.8 °F 29.8 in West 4 mph 5 mph 34% 0 in 596 W/m2
14:58 78.6 °F 48.7 °F 29.8 in SW 2.9 mph 4 mph 35% 0 in 591 W/m2
15:03 78.8 °F 48 °F 29.8 in West 4 mph 9 mph 34% 0 in 587 W/m2
15:08 78.6 °F 47.8 °F 29.8 in Calm   3 mph 34% 0 in 584 W/m2
15:13 79.2 °F 49.1 °F 29.8 in East 4 mph 9 mph 35% 0 in 578 W/m2
15:18 79.5 °F 48.7 °F 29.8 in West 8.9 mph 9 mph 34% 0 in 570 W/m2
15:23 79.2 °F 49.1 °F 29.8 in ENE 2 mph 3 mph 35% 0 in 563 W/m2
15:28 79.5 °F 49.5 °F 29.8 in West 6.9 mph 9 mph 35% 0 in 559 W/m2
15:33 79.5 °F 48.7 °F 29.8 in West 2.9 mph 6 mph 34% 0 in 555 W/m2
15:38 79.5 °F 48.7 °F 29.8 in West 2.9 mph 8 mph 34% 0 in 547 W/m2
15:43 79.5 °F 49.5 °F 29.8 in ESE 6.9 mph 7 mph 35% 0 in 538 W/m2
15:48 79.3 °F 49.3 °F 29.8 in West 2.9 mph 4 mph 35% 0 in 529 W/m2
15:53 79.5 °F 50.2 °F 29.8 in ENE 0.9 mph 3 mph 36% 0 in 517 W/m2
15:58 80.1 °F 50 °F 29.8 in SE 2 mph 3 mph 35% 0 in 504 W/m2
16:03 80.6 °F 51.3 °F 29.8 in WNW 0.9 mph 2 mph 36% 0 in 492 W/m2
16:08 80.8 °F 49.8 °F 29.8 in WNW 2.9 mph 5 mph 34% 0 in 485 W/m2
16:13 80.6 °F 49.6 °F 29.8 in West 4 mph 7 mph 34% 0 in 469 W/m2
16:18 80.2 °F 50.2 °F 29.8 in Calm   3 mph 35% 0 in 461 W/m2
16:23 80.2 °F 50.2 °F 29.8 in WNW 2 mph 7 mph 35% 0 in 457 W/m2
16:28 80.2 °F 50.2 °F 29.8 in WSW 2.9 mph 3 mph 35% 0 in 448 W/m2
16:33 80.1 °F 49.1 °F 29.8 in WNW 4 mph 7 mph 34% 0 in 431 W/m2
16:38 80.2 °F 48.6 °F 29.8 in NW 4 mph 7 mph 33% 0 in 422 W/m2
16:43 80.2 °F 48.6 °F 29.8 in WNW 2.9 mph 8 mph 33% 0 in 406 W/m2
16:48 80.2 °F 47.7 °F 29.8 in NW 4 mph 7 mph 32% 0 in 359 W/m2
16:53 80.2 °F 48.6 °F 29.8 in WNW 2.9 mph 8 mph 33% 0 in 357 W/m2
16:58 80.4 °F 47.8 °F 29.8 in SW 2.9 mph 7 mph 32% 0 in 366 W/m2
17:03 80.4 °F 47.8 °F 29.8 in West 2 mph 4 mph 32% 0 in 352 W/m2
17:08 80.4 °F 47.8 °F 29.8 in West 2 mph 5 mph 32% 0 in 338 W/m2
17:13 80.4 °F 47.8 °F 29.8 in West 2.9 mph 10 mph 32% 0 in 329 W/m2
17:19 79.9 °F 48.2 °F 29.7 in Calm   3 mph 33% 0 in 309 W/m2
17:24 79.9 °F 48.9 °F 29.7 in West 6 mph 10 mph 34% 0 in 302 W/m2
17:29 79.9 °F 48.9 °F 29.7 in Calm   4 mph 34% 0 in 285 W/m2
17:34 79.9 °F 48.9 °F 29.7 in NW 0.9 mph 8 mph 34% 0 in 276 W/m2
17:39 80.1 °F 50 °F 29.7 in West 2 mph 3 mph 35% 0 in 255 W/m2
17:44 80.1 °F 49.1 °F 29.7 in WNW 2.9 mph 4 mph 34% 0 in 246 W/m2
17:49 79.9 °F 48.9 °F 29.7 in WNW 2.9 mph 5 mph 34% 0 in 234 W/m2
17:54 79.5 °F 48.7 °F 29.7 in WNW 4 mph 5 mph 34% 0 in 214 W/m2
17:59 79.5 °F 49.5 °F 29.7 in WNW 2.9 mph 3 mph 35% 0 in 197 W/m2
18:04 79.3 °F 49.3 °F 29.7 in West 0.9 mph 6 mph 35% 0 in 74 W/m2
18:09 79 °F 49.8 °F 29.7 in WSW 0.9 mph 3 mph 36% 0 in 167 W/m2
18:14 79 °F 49.8 °F 29.7 in WSW 0.9 mph 5 mph 36% 0 in 155 W/m2
18:19 78.6 °F 49.5 °F 29.7 in SW 0.9 mph 3 mph 36% 0 in 144 W/m2
18:24 78.6 °F 50.2 °F 29.7 in SW 2 mph 2 mph 37% 0 in 132 W/m2
18:29 78.3 °F 49.8 °F 29.7 in WNW 0.9 mph 3 mph 37% 0 in 49 W/m2
18:34 77.5 °F 50.5 °F 29.7 in Calm     39% 0 in 44 W/m2
18:39 77 °F 50.2 °F 29.7 in WNW 2 mph 3 mph 39% 0 in 35 W/m2
18:44 76.5 °F 49.6 °F 29.7 in WNW 0.9 mph 4 mph 39% 0 in 33 W/m2
18:49 75.9 °F 50.5 °F 29.7 in WNW 0.9 mph 2 mph 41% 0 in 28 W/m2
18:54 75.4 °F 49.5 °F 29.7 in West 0.9 mph 4 mph 40% 0 in 25 W/m2
18:59 74.8 °F 49.6 °F 29.7 in WSW 0.9 mph 3 mph 41% 0 in 21 W/m2
19:04 74.3 °F 49.1 °F 29.7 in WSW 0.9 mph 3 mph 41% 0 in 16 W/m2
19:09 73.9 °F 50 °F 29.7 in SW 0.9 mph 2 mph 43% 0 in 16 W/m2
19:14 73.6 °F 49.1 °F 29.7 in WSW 0.9 mph 3 mph 42% 0 in 14 W/m2
19:19 73 °F 49.3 °F 29.7 in West 2.9 mph 3 mph 43% 0 in 12 W/m2
19:24 72.9 °F 49.1 °F 29.7 in West 0.9 mph 3 mph 43% 0 in 9 W/m2
19:29 72.7 °F 48.2 °F 29.7 in WSW 4 mph 4 mph 42% 0 in 7 W/m2
19:34 72.7 °F 48.2 °F 29.7 in WSW 4 mph 4 mph 42% 0 in 5 W/m2
19:39 72.7 °F 48.2 °F 29.7 in WSW 0.9 mph 4 mph 42% 0 in 0 W/m2
19:44 72.7 °F 48.2 °F 29.7 in WSW 2.9 mph 4 mph 42% 0 in 0 W/m2
19:49 72.5 °F 47.5 °F 29.7 in WSW 0.9 mph 3 mph 41% 0 in 0 W/m2
19:54 72.3 °F 48 °F 29.7 in West 2.9 mph 5 mph 42% 0 in 0 W/m2
19:59 72.1 °F 48.4 °F 29.7 in WNW 0.9 mph 4 mph 43% 0 in 0 W/m2
20:04 72 °F 47.7 °F 29.7 in West 0.9 mph 5 mph 42% 0 in 0 W/m2
20:09 71.6 °F 49.1 °F 29.7 in West 0.9 mph 2 mph 45% 0 in 0 W/m2
20:14 71.1 °F 49.3 °F 29.7 in Calm   2 mph 46% 0 in 0 W/m2
20:19 70.5 °F 49.3 °F 29.7 in WNW 0.9 mph 2 mph 47% 0 in 0 W/m2
20:24 70 °F 49.5 °F 29.7 in WNW 0.9 mph 2 mph 48% 0 in 0 W/m2
20:29 69.6 °F 48.6 °F 29.7 in West 0.9 mph 2 mph 47% 0 in 0 W/m2
20:34 69.4 °F 47.8 °F 29.7 in West 2 mph 3 mph 46% 0 in 0 W/m2
20:39 69.4 °F 47.1 °F 29.7 in West 2 mph 3 mph 45% 0 in 0 W/m2
20:44 69.6 °F 47.3 °F 29.7 in WSW 2.9 mph 4 mph 45% 0 in 0 W/m2
20:49 70.3 °F 46.2 °F 29.7 in West 2 mph 4 mph 42% 0 in 0 W/m2
20:54 70.9 °F 46.6 °F 29.7 in WNW 2 mph 4 mph 42% 0 in 0 W/m2
20:59 71.2 °F 46.9 °F 29.7 in West 2 mph 2 mph 42% 0 in 0 W/m2
21:04 71.4 °F 45.9 °F 29.7 in WNW 0.9 mph 6 mph 40% 0 in 0 W/m2
21:09 71.8 °F 46.2 °F 29.7 in West 2.9 mph 6 mph 40% 0 in 0 W/m2
21:14 72 °F 46.4 °F 29.7 in WSW 2.9 mph 9 mph 40% 0 in 0 W/m2
21:19 72 °F 46.4 °F 29.7 in West 6.9 mph 7 mph 40% 0 in 0 W/m2
21:24 72 °F 46.4 °F 29.7 in West 6.9 mph 7 mph 40% 0 in 0 W/m2
21:29 72 °F 46.4 °F 29.7 in WNW 2 mph 10 mph 40% 0 in 0 W/m2
21:34 71.8 °F 46.2 °F 29.7 in West 2 mph 6 mph 40% 0 in 0 W/m2
21:39 71.8 °F 46.8 °F 29.7 in West 2.9 mph 10 mph 41% 0 in 0 W/m2
21:44 71.4 °F 46.6 °F 29.7 in WNW 4 mph 6 mph 41% 0 in 0 W/m2
21:49 71.2 °F 46.4 °F 29.7 in West 4 mph 7 mph 41% 0 in 0 W/m2
21:54 71.1 °F 46.2 °F 29.7 in West 4 mph 6 mph 41% 0 in 0 W/m2
21:59 70.9 °F 46 °F 29.7 in WNW 4 mph 6 mph 41% 0 in 0 W/m2
22:04 70.7 °F 46.4 °F 29.7 in WNW 6 mph 8 mph 42% 0 in 0 W/m2
22:09 70.5 °F 46.4 °F 29.7 in West 4 mph 7 mph 42% 0 in 0 W/m2
22:14 70.3 °F 46.2 °F 29.7 in NW 0.9 mph 8 mph 42% 0 in 0 W/m2
22:19 70.3 °F 46.2 °F 29.7 in West 2.9 mph 8 mph 42% 0 in 0 W/m2
22:24 70.3 °F 45.5 °F 29.7 in WSW 2 mph 4 mph 41% 0 in 0 W/m2
22:29 70.2 °F 45.3 °F 29.7 in West 4 mph 8 mph 41% 0 in 0 W/m2
22:34 70.2 °F 45.3 °F 29.7 in West 2 mph 4 mph 41% 0 in 0 W/m2
22:39 70.2 °F 45.3 °F 29.7 in WNW 2 mph 6 mph 41% 0 in 0 W/m2
22:44 70.2 °F 45.3 °F 29.7 in WSW 2 mph 4 mph 41% 0 in 0 W/m2
22:49 70.2 °F 46 °F 29.7 in NW 0.9 mph 3 mph 42% 0 in 0 W/m2
22:54 70 °F 45.9 °F 29.7 in WSW 2 mph 6 mph 42% 0 in 0 W/m2
22:59 69.6 °F 45.5 °F 29.7 in Calm   4 mph 42% 0 in 0 W/m2
23:04 69.6 °F 45.5 °F 29.7 in NW 0.9 mph 6 mph 42% 0 in 0 W/m2
23:09 69.4 °F 46 °F 29.7 in Calm   1 mph 43% 0 in 0 W/m2
23:14 69.1 °F 45.7 °F 29.7 in Calm   3 mph 43% 0 in 0 W/m2
23:19 68.7 °F 45.3 °F 29.7 in SW 0.9 mph 3 mph 43% 0 in 0 W/m2
23:24 68.5 °F 45.1 °F 29.7 in West 2 mph 3 mph 43% 0 in 0 W/m2
23:29 68.4 °F 45 °F 29.7 in West 2.9 mph 3 mph 43% 0 in 0 W/m2
23:34 68.4 °F 45.7 °F 29.7 in WNW 0.9 mph 1 mph 44% 0 in 0 W/m2
23:39 68.2 °F 44.8 °F 29.7 in West 2 mph 4 mph 43% 0 in 0 W/m2
23:44 68.2 °F 44.8 °F 29.7 in WSW 2.9 mph 3 mph 43% 0 in 0 W/m2
23:49 68.2 °F 45.5 °F 29.7 in West 0.9 mph 2 mph 44% 0 in 0 W/m2
23:54 68.2 °F 44.8 °F 29.7 in West 0.9 mph 7 mph 43% 0 in 0 W/m2
23:59 68.2 °F 44.8 °F 29.7 in WNW 2.9 mph 6 mph 43% 0 in 0 W/m2
Juneau County Weather
Compliments of Weather Underground - 4 mb